createdAt,value
2019-01-09T00:01:56.318Z,1.50
2019-01-09T00:04:26.550Z,1.40
2019-01-09T00:06:56.917Z,1.50
2019-01-09T00:09:27.058Z,1.50
2019-01-09T00:11:58.137Z,1.50
2019-01-09T00:14:29.214Z,1.40
2019-01-09T00:16:59.298Z,1.30
2019-01-09T00:19:29.514Z,1.30
2019-01-09T00:22:02.205Z,1.20
2019-01-09T00:24:38.381Z,1.20
2019-01-09T00:27:10.478Z,1.20
2019-01-09T00:29:40.662Z,1.20
2019-01-09T00:32:10.718Z,1.20
2019-01-09T00:34:41.853Z,1.30
2019-01-09T00:37:12.005Z,1.30
2019-01-09T00:39:45.189Z,1.30
2019-01-09T00:42:17.354Z,1.30
2019-01-09T00:44:47.426Z,1.40
2019-01-09T00:47:18.606Z,1.30
2019-01-09T00:49:50.689Z,1.40
2019-01-09T00:52:26.917Z,1.40
2019-01-09T00:55:03.715Z,1.40
2019-01-09T00:57:38.933Z,1.30
2019-01-09T01:00:19.322Z,1.20
2019-01-09T01:03:30.278Z,1.10
2019-01-09T01:06:19.546Z,1.10
2019-01-09T01:09:44.262Z,1.10
2019-01-09T01:12:58.430Z,1.10
2019-01-09T01:16:07.934Z,1.10
2019-01-09T01:19:09.126Z,1.00
2019-01-09T01:21:44.806Z,1.00
2019-01-09T01:24:28.306Z,1.00
2019-01-09T01:27:04.021Z,1.00
2019-01-09T01:30:16.807Z,1.00
2019-01-09T01:33:03.305Z,1.10
2019-01-09T01:35:54.446Z,1.10
2019-01-09T01:38:33.491Z,1.20
2019-01-09T01:41:22.754Z,1.20
2019-01-09T01:44:07.791Z,1.20
2019-01-09T01:47:13.023Z,1.20
2019-01-09T01:50:24.206Z,1.10
2019-01-09T01:53:14.542Z,0.90
2019-01-09T01:56:23.042Z,0.80
2019-01-09T01:59:12.188Z,0.90
2019-01-09T02:02:10.054Z,0.90
2019-01-09T02:05:04.303Z,0.90
2019-01-09T02:07:54.454Z,0.90
2019-01-09T02:10:40.956Z,0.90
2019-01-09T02:13:34.154Z,1.00
2019-01-09T02:16:40.617Z,1.00
2019-01-09T02:19:32.922Z,1.00
2019-01-09T02:22:23.006Z,1.00
2019-01-09T02:24:57.690Z,0.90
2019-01-09T02:27:57.702Z,0.90
2019-01-09T02:30:37.650Z,0.90
2019-01-09T02:33:07.727Z,0.80
2019-01-09T02:35:39.774Z,0.70
2019-01-09T02:38:09.834Z,0.70
2019-01-09T02:40:39.906Z,0.60
2019-01-09T02:43:10.942Z,0.60
2019-01-09T02:45:47.827Z,0.50
2019-01-09T02:48:31.859Z,0.40
2019-01-09T02:51:02.016Z,0.40
2019-01-09T02:53:34.014Z,0.40
2019-01-09T02:56:06.120Z,0.40
2019-01-09T02:58:42.254Z,0.40
2019-01-09T03:01:13.335Z,0.40
2019-01-09T03:03:53.674Z,0.40
2019-01-09T03:06:32.712Z,0.40
2019-01-09T03:09:05.691Z,0.40
2019-01-09T03:11:46.002Z,0.40
2019-01-09T03:14:26.004Z,0.40
2019-01-09T03:16:58.054Z,0.40
2019-01-09T03:19:32.838Z,0.40
2019-01-09T03:22:12.514Z,0.50
2019-01-09T03:24:45.726Z,0.50
2019-01-09T03:27:18.917Z,0.40
2019-01-09T03:29:48.982Z,0.40
2019-01-09T03:32:22.100Z,0.40
2019-01-09T03:34:52.159Z,0.40
2019-01-09T03:37:25.222Z,0.40
2019-01-09T03:39:56.293Z,0.40
2019-01-09T03:42:32.454Z,0.40
2019-01-09T03:45:08.826Z,0.40
2019-01-09T03:47:38.904Z,0.40
2019-01-09T03:50:10.942Z,0.40
2019-01-09T03:52:41.026Z,0.40
2019-01-09T03:55:11.112Z,0.40
2019-01-09T03:57:42.167Z,0.40
2019-01-09T04:00:12.330Z,0.40
2019-01-09T04:02:44.426Z,0.30
2019-01-09T04:05:24.458Z,0.40
2019-01-09T04:07:57.779Z,0.40
2019-01-09T04:10:41.177Z,0.40
2019-01-09T04:13:11.486Z,0.40
2019-01-09T04:15:50.658Z,0.40
2019-01-09T04:18:33.746Z,0.40
2019-01-09T04:21:18.427Z,0.40
2019-01-09T04:23:52.564Z,0.40
2019-01-09T04:26:22.623Z,0.40
2019-01-09T04:28:54.618Z,0.40
2019-01-09T04:31:24.686Z,0.40
2019-01-09T04:33:58.362Z,0.40
2019-01-09T04:36:37.514Z,0.40
2019-01-09T04:39:07.590Z,0.40
2019-01-09T04:41:38.626Z,0.40
2019-01-09T04:44:11.792Z,0.40
2019-01-09T04:46:54.246Z,0.40
2019-01-09T04:49:24.301Z,0.40
2019-01-09T04:52:10.446Z,0.40
2019-01-09T04:54:40.526Z,0.40
2019-01-09T04:57:21.538Z,0.40
2019-01-09T04:59:51.612Z,0.40
2019-01-09T05:02:22.684Z,0.40
2019-01-09T05:04:55.289Z,0.40
2019-01-09T05:07:31.138Z,0.40
2019-01-09T05:10:08.429Z,0.20
2019-01-09T05:12:39.430Z,0.10
2019-01-09T05:15:10.486Z,0.00
2019-01-09T05:17:42.542Z,-0.10
2019-01-09T05:20:21.687Z,-0.10
2019-01-09T05:22:51.826Z,-0.10
2019-01-09T05:25:23.871Z,-0.10
2019-01-09T05:28:02.071Z,-0.20
2019-01-09T05:30:34.126Z,-0.30
2019-01-09T05:33:10.202Z,-0.40
2019-01-09T05:35:40.110Z,-0.50
2019-01-09T05:38:11.139Z,-0.50
2019-01-09T05:40:54.292Z,-0.50
2019-01-09T05:43:35.642Z,-0.60
2019-01-09T05:46:05.743Z,-0.60
2019-01-09T05:48:35.839Z,-0.70
2019-01-09T05:51:06.829Z,-0.80
2019-01-09T05:53:37.874Z,-0.80
2019-01-09T05:56:08.042Z,-0.90
2019-01-09T05:58:38.106Z,-0.90
2019-01-09T06:01:09.142Z,-0.90
2019-01-09T06:03:52.290Z,-1.00
2019-01-09T06:06:25.919Z,-1.00
2019-01-09T06:08:56.042Z,-1.00
2019-01-09T06:11:33.924Z,-1.00
2019-01-09T06:14:05.951Z,-1.00
2019-01-09T06:16:38.018Z,-1.00
2019-01-09T06:19:18.375Z,-0.90
2019-01-09T06:21:50.434Z,-0.80
2019-01-09T06:24:22.726Z,-0.70
2019-01-09T06:26:53.782Z,-0.60
2019-01-09T06:29:24.826Z,-0.60
2019-01-09T06:31:54.912Z,-0.50
2019-01-09T06:34:32.716Z,-0.50
2019-01-09T06:37:09.707Z,-0.50
2019-01-09T06:39:40.734Z,-0.50
2019-01-09T06:42:16.810Z,-0.50
2019-01-09T06:44:46.992Z,-0.50
2019-01-09T06:47:17.071Z,-0.50
2019-01-09T06:49:47.154Z,-0.40
2019-01-09T06:52:23.310Z,-0.40
2019-01-09T06:54:54.335Z,-0.40
2019-01-09T06:57:35.448Z,-0.40
2019-01-09T07:00:10.563Z,-0.40
2019-01-09T07:02:42.658Z,-0.40
2019-01-09T07:05:14.674Z,-0.40
2019-01-09T07:07:47.658Z,-0.40
2019-01-09T07:10:17.750Z,-0.40
2019-01-09T07:12:47.818Z,-0.40
2019-01-09T07:15:20.908Z,-0.40
2019-01-09T07:17:56.850Z,-0.40
2019-01-09T07:20:26.958Z,-0.40
2019-01-09T07:22:57.032Z,-0.40
2019-01-09T07:25:30.184Z,-0.40
2019-01-09T07:28:06.075Z,-0.40
2019-01-09T07:30:36.150Z,-0.40
2019-01-09T07:33:15.368Z,-0.40
2019-01-09T07:35:50.090Z,-0.40
2019-01-09T07:38:22.192Z,-0.30
2019-01-09T07:40:56.363Z,-0.30
2019-01-09T07:43:27.445Z,-0.30
2019-01-09T07:45:57.582Z,-0.20
2019-01-09T07:48:27.746Z,-0.20
2019-01-09T07:51:09.535Z,-0.20
2019-01-09T07:53:44.150Z,-0.20
2019-01-09T07:56:18.391Z,-0.20
2019-01-09T07:58:49.444Z,-0.20
2019-01-09T08:01:33.586Z,-0.20
2019-01-09T08:04:11.578Z,-0.10
2019-01-09T08:06:47.947Z,-0.10
2019-01-09T08:09:18.016Z,-0.10
2019-01-09T08:11:49.077Z,-0.10
2019-01-09T08:14:20.271Z,-0.10
2019-01-09T08:16:50.376Z,-0.10
2019-01-09T08:19:22.443Z,-0.10
2019-01-09T08:21:59.531Z,-0.10
2019-01-09T08:24:30.514Z,-0.10
2019-01-09T08:27:06.755Z,-0.10
2019-01-09T08:29:51.398Z,-0.10
2019-01-09T08:32:29.288Z,-0.20
2019-01-09T08:34:59.391Z,-0.20
2019-01-09T08:37:31.464Z,-0.20
2019-01-09T08:40:12.287Z,-0.20
2019-01-09T08:42:42.388Z,-0.10
2019-01-09T08:45:12.482Z,0.00
2019-01-09T08:47:46.103Z,0.00
2019-01-09T08:50:16.174Z,0.00
2019-01-09T08:52:48.284Z,-0.10
2019-01-09T08:55:18.378Z,-0.10
2019-01-09T08:57:59.263Z,0.00
2019-01-09T09:00:29.350Z,0.00
2019-01-09T09:02:59.422Z,0.00
2019-01-09T09:05:29.502Z,0.00
2019-01-09T09:08:11.819Z,-0.10
2019-01-09T09:10:36.214Z,-0.10
2019-01-09T09:13:27.150Z,0.00
2019-01-09T09:15:57.258Z,0.00
2019-01-09T09:18:28.320Z,-0.10
2019-01-09T09:20:58.407Z,0.00
2019-01-09T09:23:30.426Z,0.10
2019-01-09T09:26:02.627Z,0.10
2019-01-09T09:28:33.587Z,0.10
2019-01-09T09:31:04.610Z,0.20
2019-01-09T09:33:34.675Z,0.20
2019-01-09T09:36:08.307Z,0.10
2019-01-09T09:38:39.267Z,0.20
2019-01-09T09:41:09.398Z,0.20
2019-01-09T09:43:39.475Z,0.20
2019-01-09T09:46:10.430Z,0.30
2019-01-09T09:48:40.526Z,0.30
2019-01-09T09:51:10.586Z,0.30
2019-01-09T09:53:40.666Z,0.30
2019-01-09T09:56:12.707Z,0.30
2019-01-09T09:58:43.772Z,0.40
2019-01-09T10:01:14.060Z,0.30
2019-01-09T10:03:45.031Z,0.20
2019-01-09T10:06:20.871Z,0.20
2019-01-09T10:08:50.951Z,0.30
2019-01-09T10:11:21.038Z,0.30
2019-01-09T10:13:58.830Z,0.40
2019-01-09T10:16:28.920Z,0.30
2019-01-09T10:18:58.990Z,0.30
2019-01-09T10:21:31.005Z,0.30
2019-01-09T10:24:05.047Z,0.20
2019-01-09T10:26:41.182Z,0.20
2019-01-09T10:29:13.272Z,0.20
2019-01-09T10:31:43.342Z,0.20
2019-01-09T10:34:14.668Z,0.20
2019-01-09T10:36:50.471Z,0.20
2019-01-09T10:39:20.756Z,0.30
2019-01-09T10:41:57.843Z,0.30
2019-01-09T10:44:27.911Z,0.40
2019-01-09T10:47:02.003Z,0.40
2019-01-09T10:49:50.591Z,0.40
2019-01-09T10:52:27.391Z,0.40
2019-01-09T10:54:57.547Z,0.50
2019-01-09T10:57:57.456Z,0.50
2019-01-09T11:00:29.920Z,0.40
2019-01-09T11:03:02.256Z,0.40
2019-01-09T11:05:34.710Z,0.20
2019-01-09T11:08:04.795Z,0.20
2019-01-09T11:10:46.899Z,0.30
2019-01-09T11:13:17.140Z,0.40
2019-01-09T11:15:48.167Z,0.30
2019-01-09T11:18:21.266Z,0.20
2019-01-09T11:20:51.324Z,0.20
2019-01-09T11:23:28.205Z,0.20
2019-01-09T11:25:58.285Z,0.30
2019-01-09T11:28:38.461Z,0.30
2019-01-09T11:31:08.539Z,0.20
2019-01-09T11:33:39.567Z,0.30
2019-01-09T11:36:39.403Z,0.30
2019-01-09T11:39:16.919Z,0.10
2019-01-09T11:41:48.947Z,0.10
2019-01-09T11:44:35.119Z,0.10
2019-01-09T11:47:07.214Z,0.00
2019-01-09T11:49:37.294Z,0.00
2019-01-09T11:52:08.288Z,-0.10
2019-01-09T11:54:41.646Z,-0.10
2019-01-09T11:57:11.775Z,-0.10
2019-01-09T11:59:43.783Z,0.00
2019-01-09T12:02:22.177Z,0.00
2019-01-09T12:04:53.707Z,0.10
2019-01-09T12:07:38.975Z,0.10
2019-01-09T12:10:16.527Z,0.10
2019-01-09T12:12:47.547Z,0.10
2019-01-09T12:15:31.847Z,0.20
2019-01-09T12:18:01.937Z,0.20
2019-01-09T12:20:32.011Z,0.20
2019-01-09T12:23:07.839Z,0.20
2019-01-09T12:25:39.909Z,0.20
2019-01-09T12:28:21.907Z,0.20
2019-01-09T12:30:57.771Z,0.30
2019-01-09T12:33:36.687Z,0.30
2019-01-09T12:36:08.055Z,0.40
2019-01-09T12:38:40.131Z,0.40
2019-01-09T12:41:12.189Z,0.40
2019-01-09T12:43:45.604Z,0.40
2019-01-09T12:46:16.208Z,0.30
2019-01-09T12:48:53.077Z,0.30
2019-01-09T12:51:26.428Z,0.40
2019-01-09T12:53:58.547Z,0.60
2019-01-09T12:56:28.855Z,0.50
2019-01-09T12:58:58.999Z,0.40
2019-01-09T13:01:38.237Z,0.40
2019-01-09T13:04:08.331Z,0.40
2019-01-09T13:06:51.700Z,0.40
2019-01-09T13:09:22.557Z,0.40
2019-01-09T13:11:52.971Z,0.40
2019-01-09T13:14:23.071Z,0.30
2019-01-09T13:17:01.971Z,0.30
2019-01-09T13:19:32.111Z,0.30
2019-01-09T13:22:02.327Z,0.40
2019-01-09T13:24:32.771Z,0.30
2019-01-09T13:27:02.869Z,0.30
2019-01-09T13:29:33.885Z,0.40
2019-01-09T13:32:04.032Z,0.30
2019-01-09T13:34:45.251Z,0.30
2019-01-09T13:37:24.927Z,0.20
2019-01-09T13:39:57.215Z,0.10
2019-01-09T13:42:29.515Z,0.10
2019-01-09T13:45:00.755Z,0.10
2019-01-09T13:47:31.730Z,0.00
2019-01-09T13:50:09.545Z,0.00
2019-01-09T13:52:49.051Z,0.10
2019-01-09T13:55:19.331Z,-0.10
2019-01-09T13:58:08.763Z,-0.10
2019-01-09T14:00:46.608Z,-0.10
2019-01-09T14:03:18.667Z,-0.20
2019-01-09T14:05:50.589Z,-0.20
2019-01-09T14:08:25.727Z,-0.20
2019-01-09T14:10:55.823Z,-0.20
2019-01-09T14:13:32.374Z,-0.20
2019-01-09T14:16:02.472Z,-0.30
2019-01-09T14:18:36.118Z,-0.40
2019-01-09T14:21:06.292Z,-0.40
2019-01-09T14:23:38.368Z,-0.40
2019-01-09T14:26:17.643Z,-0.40
2019-01-09T14:28:48.029Z,-0.40
2019-01-09T14:31:18.119Z,-0.40
2019-01-09T14:33:53.640Z,-0.40
2019-01-09T14:36:31.839Z,-0.40
2019-01-09T14:39:09.981Z,-0.50
2019-01-09T14:41:41.179Z,-0.50
2019-01-09T14:44:17.193Z,-0.50
2019-01-09T14:46:47.387Z,-0.50
2019-01-09T14:49:20.939Z,-0.50
2019-01-09T14:52:06.563Z,-0.60
2019-01-09T14:54:38.647Z,-0.60
2019-01-09T14:57:14.481Z,-0.60
2019-01-09T14:59:44.679Z,-0.60
2019-01-09T15:02:25.793Z,-0.60
2019-01-09T15:04:58.099Z,-0.60
2019-01-09T15:07:30.312Z,-0.60
2019-01-09T15:10:15.723Z,-0.60
2019-01-09T15:12:46.239Z,-0.60
2019-01-09T15:15:18.365Z,-0.60
2019-01-09T15:17:52.411Z,-0.70
2019-01-09T15:20:29.543Z,-0.70
2019-01-09T15:23:12.099Z,-0.70
2019-01-09T15:25:44.103Z,-0.70
2019-01-09T15:28:24.351Z,-0.70
2019-01-09T15:30:54.839Z,-0.70
2019-01-09T15:33:28.515Z,-0.80
2019-01-09T15:36:08.523Z,-0.80
2019-01-09T15:38:38.615Z,-0.80
2019-01-09T15:41:08.720Z,-0.80
2019-01-09T15:43:40.723Z,-0.90
2019-01-09T15:46:11.011Z,-0.90
2019-01-09T15:48:56.108Z,-0.80
2019-01-09T15:51:27.195Z,-0.80
2019-01-09T15:54:07.352Z,-0.90
2019-01-09T15:56:50.708Z,-0.80
2019-01-09T15:59:20.787Z,-0.90
2019-01-09T16:01:52.843Z,-0.80
2019-01-09T16:04:23.923Z,-0.90
2019-01-09T16:06:54.007Z,-0.90
2019-01-09T16:09:27.066Z,-0.90
2019-01-09T16:11:59.111Z,-0.90
2019-01-09T16:14:29.263Z,-0.90
2019-01-09T16:17:01.223Z,-0.90
2019-01-09T16:19:32.295Z,-0.90
2019-01-09T16:22:08.620Z,-0.90
2019-01-09T16:24:44.600Z,-0.90
2019-01-09T16:27:21.531Z,-0.90
2019-01-09T16:29:54.127Z,-0.90
2019-01-09T16:32:24.259Z,-0.90
2019-01-09T16:34:57.425Z,-1.00
2019-01-09T16:37:48.413Z,-1.00
2019-01-09T16:40:23.651Z,-0.90
2019-01-09T16:42:53.711Z,-0.90
2019-01-09T16:45:23.800Z,-0.90
2019-01-09T16:47:55.337Z,-0.90
2019-01-09T16:50:31.207Z,-0.90
2019-01-09T16:53:02.247Z,-0.90
2019-01-09T16:55:32.403Z,-0.90
2019-01-09T16:58:07.391Z,-0.90
2019-01-09T17:00:42.651Z,-0.90
2019-01-09T17:03:12.731Z,-1.00
2019-01-09T17:05:42.834Z,-0.90
2019-01-09T17:08:17.909Z,-0.90
2019-01-09T17:10:54.083Z,-0.90
2019-01-09T17:13:29.888Z,-0.90
2019-01-09T17:16:01.927Z,-0.90
2019-01-09T17:18:32.923Z,-0.90
2019-01-09T17:21:07.099Z,-0.90
2019-01-09T17:23:39.859Z,-1.00
2019-01-09T17:26:10.020Z,-0.90
2019-01-09T17:28:45.147Z,-1.00
2019-01-09T17:31:23.547Z,-0.90
2019-01-09T17:33:53.736Z,-0.90
2019-01-09T17:36:23.835Z,-0.90
2019-01-09T17:38:53.951Z,-0.90
2019-01-09T17:41:24.058Z,-0.90
2019-01-09T17:43:54.217Z,-0.90
2019-01-09T17:46:26.328Z,-0.90
2019-01-09T17:48:58.495Z,-0.90
2019-01-09T17:51:28.620Z,-0.90
2019-01-09T17:53:58.693Z,-0.90
2019-01-09T17:56:29.749Z,-0.90
2019-01-09T17:59:00.895Z,-0.90
2019-01-09T18:01:32.007Z,-0.90
2019-01-09T18:04:02.172Z,-0.90
2019-01-09T18:06:34.328Z,-0.90
2019-01-09T18:09:06.715Z,-0.90
2019-01-09T18:11:39.560Z,-0.90
2019-01-09T18:14:11.255Z,-0.90
2019-01-09T18:16:47.467Z,-0.90
2019-01-09T18:19:17.703Z,-0.90
2019-01-09T18:21:53.908Z,-0.90
2019-01-09T18:24:31.833Z,-0.90
2019-01-09T18:27:03.031Z,-0.90
2019-01-09T18:29:33.128Z,-0.90
2019-01-09T18:32:14.648Z,-0.90
2019-01-09T18:34:45.946Z,-0.90
2019-01-09T18:37:30.091Z,-0.90
2019-01-09T18:40:18.263Z,-0.90
2019-01-09T18:43:28.807Z,-0.90
2019-01-09T18:46:15.807Z,-0.90
2019-01-09T18:49:09.872Z,-0.90
2019-01-09T18:52:01.552Z,-0.90
2019-01-09T18:54:32.755Z,-0.90
2019-01-09T18:57:04.196Z,-0.90
2019-01-09T18:59:34.391Z,-0.90
2019-01-09T19:02:06.420Z,-0.90
2019-01-09T19:04:42.376Z,-0.90
2019-01-09T19:07:16.007Z,-0.90
2019-01-09T19:09:47.331Z,-0.90
2019-01-09T19:12:17.427Z,-0.90
2019-01-09T19:14:47.524Z,-0.90
2019-01-09T19:17:39.512Z,-0.90
2019-01-09T19:20:12.877Z,-0.90
2019-01-09T19:22:45.096Z,-0.90
2019-01-09T19:25:17.912Z,-0.90
2019-01-09T19:27:49.117Z,-0.90
2019-01-09T19:30:25.895Z,-0.90
2019-01-09T19:32:57.314Z,-0.90
2019-01-09T19:35:29.456Z,-0.90
2019-01-09T19:38:01.492Z,-0.90
2019-01-09T19:40:36.684Z,-0.90
2019-01-09T19:43:06.850Z,-0.90
2019-01-09T19:45:40.539Z,-0.90
2019-01-09T19:48:11.720Z,-0.90
2019-01-09T19:50:42.685Z,-0.90
2019-01-09T19:53:12.955Z,-0.90
2019-01-09T19:55:54.263Z,-0.80
2019-01-09T19:58:24.446Z,-0.90
2019-01-09T20:00:56.527Z,-0.90
2019-01-09T20:03:27.742Z,-0.90
2019-01-09T20:05:59.989Z,-0.90
2019-01-09T20:08:39.237Z,-0.90
2019-01-09T20:11:25.895Z,-0.90
2019-01-09T20:13:49.380Z,-0.90
2019-01-09T20:16:22.589Z,-0.90
2019-01-09T20:18:54.138Z,-0.90
2019-01-09T20:21:24.223Z,-0.90
2019-01-09T20:23:55.408Z,-0.90
2019-01-09T20:26:25.503Z,-0.90
2019-01-09T20:29:02.416Z,-0.90
2019-01-09T20:31:40.617Z,-0.90
2019-01-09T20:34:11.731Z,-0.90
2019-01-09T20:36:43.080Z,-0.90
2019-01-09T20:39:13.172Z,-0.90
2019-01-09T20:41:49.136Z,-0.90
2019-01-09T20:44:20.247Z,-0.90
2019-01-09T20:46:50.398Z,-0.90
2019-01-09T20:49:21.681Z,-0.90
2019-01-09T20:51:53.716Z,-0.90
2019-01-09T20:54:26.788Z,-0.90
2019-01-09T20:57:03.182Z,-0.90
2019-01-09T20:59:34.196Z,-0.90
2019-01-09T21:02:06.521Z,-0.90
2019-01-09T21:04:39.652Z,-0.80
2019-01-09T21:07:11.729Z,-0.90
2019-01-09T21:09:55.157Z,-0.90
2019-01-09T21:12:26.104Z,-0.80
2019-01-09T21:14:59.718Z,-0.90
2019-01-09T21:17:32.396Z,-0.90
2019-01-09T21:20:02.489Z,-0.90
2019-01-09T21:22:34.540Z,-0.90
2019-01-09T21:25:08.232Z,-0.90
2019-01-09T21:27:42.145Z,-0.90
2019-01-09T21:30:17.876Z,-0.90
2019-01-09T21:32:49.021Z,-0.80
2019-01-09T21:35:20.124Z,-0.90
2019-01-09T21:37:58.168Z,-0.80
2019-01-09T21:40:30.610Z,-0.80
2019-01-09T21:43:01.578Z,-0.80
2019-01-09T21:45:32.684Z,-0.90
2019-01-09T21:48:08.664Z,-0.80
2019-01-09T21:50:39.748Z,-0.90
2019-01-09T21:53:09.896Z,-0.80
2019-01-09T21:55:39.988Z,-0.90
2019-01-09T21:58:10.112Z,-0.90
2019-01-09T22:00:41.132Z,-0.80
2019-01-09T22:03:14.968Z,-0.80
2019-01-09T22:05:51.016Z,-0.80
2019-01-09T22:08:21.244Z,-0.90
2019-01-09T22:10:52.974Z,-0.90
2019-01-09T22:13:31.901Z,-0.90
2019-01-09T22:16:01.972Z,-0.90
2019-01-09T22:18:41.152Z,-0.90
2019-01-09T22:21:11.344Z,-1.00
2019-01-09T22:23:41.504Z,-1.00
2019-01-09T22:26:22.784Z,-1.00
2019-01-09T22:28:54.822Z,-1.00
2019-01-09T22:31:24.976Z,-1.00
2019-01-09T22:33:55.120Z,-1.00
2019-01-09T22:36:29.460Z,-0.90
2019-01-09T22:39:00.681Z,-0.90
2019-01-09T22:41:31.804Z,-0.90
2019-01-09T22:44:01.840Z,-0.90
2019-01-09T22:46:31.929Z,-0.90
2019-01-09T22:49:02.008Z,-0.90
2019-01-09T22:51:37.352Z,-0.90
2019-01-09T22:54:07.438Z,-0.90
2019-01-09T22:56:37.609Z,-0.90
2019-01-09T22:59:10.684Z,-0.90
2019-01-09T23:01:41.788Z,-0.90
2019-01-09T23:04:13.744Z,-0.90
2019-01-09T23:06:43.832Z,-0.90
2019-01-09T23:09:15.068Z,-0.90
2019-01-09T23:11:45.176Z,-1.00
2019-01-09T23:14:16.197Z,-0.90
2019-01-09T23:16:47.240Z,-0.90
2019-01-09T23:19:17.377Z,-1.00
2019-01-09T23:21:47.404Z,-1.00
2019-01-09T23:24:17.500Z,-1.00
2019-01-09T23:26:47.742Z,-1.00
2019-01-09T23:29:18.659Z,-1.00
2019-01-09T23:31:48.730Z,-1.00
2019-01-09T23:34:20.468Z,-1.00
2019-01-09T23:37:03.004Z,-1.00
2019-01-09T23:39:35.796Z,-0.90
2019-01-09T23:42:06.086Z,-1.00
2019-01-09T23:44:37.264Z,-1.00
2019-01-09T23:47:07.352Z,-1.00
2019-01-09T23:49:38.460Z,-1.00
2019-01-09T23:52:09.592Z,-1.00
2019-01-09T23:54:39.718Z,-1.00
2019-01-09T23:57:12.764Z,-1.00
2019-01-09T23:59:42.846Z,-0.90
